sensor_id;sensor_type;location;lat;lon;timestamp;pressure;altitude;pressure_sealevel;temperature;humidity
73151;BME280;61354;50.758;6.106;2022-09-01T00:00:47;99620.88;;;15.78;74.00
73151;BME280;61354;50.758;6.106;2022-09-01T00:03:17;99613.72;;;15.84;73.53
73151;BME280;61354;50.758;6.106;2022-09-01T00:05:44;99617.03;;;15.59;74.72
73151;BME280;61354;50.758;6.106;2022-09-01T00:08:12;99615.63;;;15.46;75.32
73151;BME280;61354;50.758;6.106;2022-09-01T00:10:38;99611.38;;;15.56;75.07
73151;BME280;61354;50.758;6.106;2022-09-01T00:13:04;99615.56;;;15.39;75.42
73151;BME280;61354;50.758;6.106;2022-09-01T00:15:33;99620.13;;;15.54;74.97
73151;BME280;61354;50.758;6.106;2022-09-01T00:17:58;99619.84;;;15.63;74.15
73151;BME280;61354;50.758;6.106;2022-09-01T00:20:24;99622.09;;;15.50;74.42
73151;BME280;61354;50.758;6.106;2022-09-01T00:22:49;99618.69;;;15.07;76.69
73151;BME280;61354;50.758;6.106;2022-09-01T00:25:16;99620.38;;;15.42;75.04
73151;BME280;61354;50.758;6.106;2022-09-01T00:27:43;99631.63;;;15.46;74.72
73151;BME280;61354;50.758;6.106;2022-09-01T00:30:09;99631.81;;;15.60;73.90
73151;BME280;61354;50.758;6.106;2022-09-01T00:32:35;99624.47;;;15.48;74.52
73151;BME280;61354;50.758;6.106;2022-09-01T00:35:01;99623.38;;;15.56;74.16
73151;BME280;61354;50.758;6.106;2022-09-01T00:37:26;99628.00;;;15.45;75.11
73151;BME280;61354;50.758;6.106;2022-09-01T00:39:52;99626.31;;;15.37;75.27
73151;BME280;61354;50.758;6.106;2022-09-01T00:42:17;99614.59;;;15.28;75.54
73151;BME280;61354;50.758;6.106;2022-09-01T00:44:43;99618.47;;;15.20;75.86
73151;BME280;61354;50.758;6.106;2022-09-01T00:47:08;99620.38;;;15.42;74.82
73151;BME280;61354;50.758;6.106;2022-09-01T00:49:38;99614.63;;;15.31;75.40
73151;BME280;61354;50.758;6.106;2022-09-01T00:52:28;99609.75;;;15.25;75.89
73151;BME280;61354;50.758;6.106;2022-09-01T00:54:55;99616.13;;;15.25;75.57
73151;BME280;61354;50.758;6.106;2022-09-01T00:57:23;99618.75;;;15.11;76.04
73151;BME280;61354;50.758;6.106;2022-09-01T00:59:55;99619.31;;;15.24;75.85
73151;BME280;61354;50.758;6.106;2022-09-01T01:02:21;99620.72;;;15.10;76.44
73151;BME280;61354;50.758;6.106;2022-09-01T01:04:47;99619.50;;;15.34;75.19
73151;BME280;61354;50.758;6.106;2022-09-01T01:07:16;99621.44;;;15.30;75.25
73151;BME280;61354;50.758;6.106;2022-09-01T01:09:43;99619.53;;;15.11;76.03
73151;BME280;61354;50.758;6.106;2022-09-01T01:12:11;99613.41;;;15.29;74.91
73151;BME280;61354;50.758;6.106;2022-09-01T01:14:38;99611.91;;;15.38;74.44
73151;BME280;61354;50.758;6.106;2022-09-01T01:17:04;99616.41;;;15.43;74.01
73151;BME280;61354;50.758;6.106;2022-09-01T01:19:45;99610.03;;;15.46;73.94
73151;BME280;61354;50.758;6.106;2022-09-01T01:25:27;99610.47;;;15.18;74.82
73151;BME280;61354;50.758;6.106;2022-09-01T01:30:57;99623.09;;;15.08;74.75
73151;BME280;61354;50.758;6.106;2022-09-01T01:33:29;99616.00;;;15.14;74.30
73151;BME280;61354;50.758;6.106;2022-09-01T01:35:55;99615.63;;;14.89;75.57
73151;BME280;61354;50.758;6.106;2022-09-01T01:38:22;99613.28;;;14.95;74.90
73151;BME280;61354;50.758;6.106;2022-09-01T01:40:49;99616.38;;;14.63;76.12
73151;BME280;61354;50.758;6.106;2022-09-01T01:43:16;99610.09;;;14.93;74.76
73151;BME280;61354;50.758;6.106;2022-09-01T01:45:50;99613.81;;;14.78;75.16
73151;BME280;61354;50.758;6.106;2022-09-01T01:48:18;99615.72;;;14.97;74.37
73151;BME280;61354;50.758;6.106;2022-09-01T01:50:47;99609.75;;;14.98;74.50
73151;BME280;61354;50.758;6.106;2022-09-01T01:53:14;99614.63;;;14.78;75.12
73151;BME280;61354;50.758;6.106;2022-09-01T01:55:41;99608.44;;;14.92;74.72
73151;BME280;61354;50.758;6.106;2022-09-01T01:58:08;99617.81;;;14.77;75.29
73151;BME280;61354;50.758;6.106;2022-09-01T02:00:36;99607.25;;;14.66;75.42
73151;BME280;61354;50.758;6.106;2022-09-01T02:03:03;99616.81;;;14.65;74.96
73151;BME280;61354;50.758;6.106;2022-09-01T02:05:31;99613.53;;;14.60;75.34
73151;BME280;61354;50.758;6.106;2022-09-01T02:08:00;99615.00;;;14.77;74.48
73151;BME280;61354;50.758;6.106;2022-09-01T02:10:35;99608.47;;;14.46;75.36
73151;BME280;61354;50.758;6.106;2022-09-01T02:13:03;99610.84;;;14.44;75.83
73151;BME280;61354;50.758;6.106;2022-09-01T02:15:36;99609.63;;;14.22;76.65
73151;BME280;61354;50.758;6.106;2022-09-01T02:18:23;99610.16;;;14.08;77.30
73151;BME280;61354;50.758;6.106;2022-09-01T02:20:52;99607.34;;;14.28;76.67
73151;BME280;61354;50.758;6.106;2022-09-01T02:23:20;99608.75;;;14.18;76.79
73151;BME280;61354;50.758;6.106;2022-09-01T02:25:52;99606.03;;;14.22;76.47
73151;BME280;61354;50.758;6.106;2022-09-01T02:28:19;99606.25;;;13.90;78.02
73151;BME280;61354;50.758;6.106;2022-09-01T02:30:50;99609.59;;;14.18;76.68
73151;BME280;61354;50.758;6.106;2022-09-01T02:33:25;99599.38;;;14.30;75.97
73151;BME280;61354;50.758;6.106;2022-09-01T02:35:58;99599.81;;;14.09;76.96
73151;BME280;61354;50.758;6.106;2022-09-01T02:38:25;99594.44;;;14.20;76.67
73151;BME280;61354;50.758;6.106;2022-09-01T02:40:58;99592.13;;;14.25;75.98
73151;BME280;61354;50.758;6.106;2022-09-01T02:43:26;99595.44;;;14.31;76.08
73151;BME280;61354;50.758;6.106;2022-09-01T02:45:54;99605.66;;;14.23;76.46
73151;BME280;61354;50.758;6.106;2022-09-01T02:48:32;99602.69;;;14.35;75.79
73151;BME280;61354;50.758;6.106;2022-09-01T02:51:01;99608.78;;;14.41;75.43
73151;BME280;61354;50.758;6.106;2022-09-01T02:53:28;99608.31;;;14.39;75.60
73151;BME280;61354;50.758;6.106;2022-09-01T02:55:56;99605.59;;;14.42;75.32
73151;BME280;61354;50.758;6.106;2022-09-01T02:58:29;99598.03;;;14.43;75.29
73151;BME280;61354;50.758;6.106;2022-09-01T03:00:57;99603.59;;;14.43;75.14
73151;BME280;61354;50.758;6.106;2022-09-01T03:03:24;99600.00;;;14.20;76.06
73151;BME280;61354;50.758;6.106;2022-09-01T03:05:51;99600.44;;;14.22;75.96
73151;BME280;61354;50.758;6.106;2022-09-01T03:08:22;99593.56;;;14.15;75.58
73151;BME280;61354;50.758;6.106;2022-09-01T03:10:49;99594.28;;;14.12;76.04
73151;BME280;61354;50.758;6.106;2022-09-01T03:13:22;99602.25;;;14.10;76.01
73151;BME280;61354;50.758;6.106;2022-09-01T03:15:48;99588.69;;;14.12;76.14
73151;BME280;61354;50.758;6.106;2022-09-01T03:18:15;99594.59;;;14.07;76.10
73151;BME280;61354;50.758;6.106;2022-09-01T03:20:42;99591.75;;;13.84;76.41
73151;BME280;61354;50.758;6.106;2022-09-01T03:23:14;99596.06;;;14.01;76.42
73151;BME280;61354;50.758;6.106;2022-09-01T03:25:42;99597.31;;;14.04;75.42
73151;BME280;61354;50.758;6.106;2022-09-01T03:28:09;99601.19;;;14.18;75.29
73151;BME280;61354;50.758;6.106;2022-09-01T03:30:40;99594.34;;;14.16;75.14
73151;BME280;61354;50.758;6.106;2022-09-01T03:33:08;99594.78;;;13.76;76.70
73151;BME280;61354;50.758;6.106;2022-09-01T03:35:34;99592.22;;;13.86;76.59
73151;BME280;61354;50.758;6.106;2022-09-01T03:38:00;99592.88;;;13.60;77.33
73151;BME280;61354;50.758;6.106;2022-09-01T03:40:29;99593.31;;;13.82;76.43
73151;BME280;61354;50.758;6.106;2022-09-01T03:43:00;99590.97;;;13.64;77.12
73151;BME280;61354;50.758;6.106;2022-09-01T03:45:27;99588.22;;;13.87;76.34
73151;BME280;61354;50.758;6.106;2022-09-01T03:47:55;99596.47;;;13.80;76.55
73151;BME280;61354;50.758;6.106;2022-09-01T03:50:22;99600.34;;;13.95;76.04
73151;BME280;61354;50.758;6.106;2022-09-01T03:52:50;99599.47;;;13.72;77.04
73151;BME280;61354;50.758;6.106;2022-09-01T03:55:26;99586.63;;;13.67;77.14
73151;BME280;61354;50.758;6.106;2022-09-01T03:57:55;99586.63;;;13.67;77.27
73151;BME280;61354;50.758;6.106;2022-09-01T04:00:23;99593.25;;;13.59;77.53
73151;BME280;61354;50.758;6.106;2022-09-01T04:02:51;99594.78;;;13.37;77.93
73151;BME280;61354;50.758;6.106;2022-09-01T04:05:22;99587.28;;;13.41;78.37
73151;BME280;61354;50.758;6.106;2022-09-01T04:07:52;99593.91;;;13.72;76.98
73151;BME280;61354;50.758;6.106;2022-09-01T04:10:19;99593.03;;;13.48;77.73
73151;BME280;61354;50.758;6.106;2022-09-01T04:12:47;99599.63;;;13.40;78.56
73151;BME280;61354;50.758;6.106;2022-09-01T04:15:14;99589.22;;;13.56;77.26
73151;BME280;61354;50.758;6.106;2022-09-01T04:17:42;99593.59;;;13.77;76.41
73151;BME280;61354;50.758;6.106;2022-09-01T04:20:26;99584.81;;;13.36;78.19
73151;BME280;61354;50.758;6.106;2022-09-01T04:22:52;99590.59;;;13.47;77.89
73151;BME280;61354;50.758;6.106;2022-09-01T04:25:18;99590.81;;;13.38;77.94
73151;BME280;61354;50.758;6.106;2022-09-01T04:27:52;99594.63;;;13.49;77.69
73151;BME280;61354;50.758;6.106;2022-09-01T04:30:22;99603.66;;;13.23;78.71
73151;BME280;61354;50.758;6.106;2022-09-01T04:32:51;99596.72;;;13.52;77.78
73151;BME280;61354;50.758;6.106;2022-09-01T04:35:20;99602.41;;;13.59;76.91
73151;BME280;61354;50.758;6.106;2022-09-01T04:37:52;99596.50;;;13.26;78.24
73151;BME280;61354;50.758;6.106;2022-09-01T04:40:18;99591.09;;;13.33;78.10
73151;BME280;61354;50.758;6.106;2022-09-01T04:42:48;99593.69;;;13.41;77.50
73151;BME280;61354;50.758;6.106;2022-09-01T04:45:14;99596.25;;;13.50;77.19
73151;BME280;61354;50.758;6.106;2022-09-01T04:47:40;99603.56;;;13.39;77.75
73151;BME280;61354;50.758;6.106;2022-09-01T04:50:10;99605.34;;;13.28;78.48
73151;BME280;61354;50.758;6.106;2022-09-01T04:52:42;99604.44;;;13.24;78.42
73151;BME280;61354;50.758;6.106;2022-09-01T04:55:10;99598.31;;;13.53;77.55
73151;BME280;61354;50.758;6.106;2022-09-01T04:57:43;99588.88;;;13.23;78.58
73151;BME280;61354;50.758;6.106;2022-09-01T05:00:16;99594.09;;;13.24;78.60
73151;BME280;61354;50.758;6.106;2022-09-01T05:02:56;99598.22;;;13.14;78.98
73151;BME280;61354;50.758;6.106;2022-09-01T05:05:35;99598.50;;;13.09;78.97
73151;BME280;61354;50.758;6.106;2022-09-01T05:08:05;99599.00;;;13.31;78.30
73151;BME280;61354;50.758;6.106;2022-09-01T05:10:30;99602.09;;;13.10;78.91
73151;BME280;61354;50.758;6.106;2022-09-01T05:12:58;99602.41;;;13.40;77.81
73151;BME280;61354;50.758;6.106;2022-09-01T05:15:26;99608.31;;;13.19;78.96
73151;BME280;61354;50.758;6.106;2022-09-01T05:17:51;99604.38;;;13.39;78.23
73151;BME280;61354;50.758;6.106;2022-09-01T05:20:22;99604.09;;;13.09;79.37
73151;BME280;61354;50.758;6.106;2022-09-01T05:22:49;99596.09;;;13.43;78.45
73151;BME280;61354;50.758;6.106;2022-09-01T05:25:14;99602.47;;;13.43;78.62
73151;BME280;61354;50.758;6.106;2022-09-01T05:27:42;99599.34;;;13.45;78.44
73151;BME280;61354;50.758;6.106;2022-09-01T05:30:15;99599.16;;;13.38;78.86
73151;BME280;61354;50.758;6.106;2022-09-01T05:32:42;99597.94;;;13.35;78.98
73151;BME280;61354;50.758;6.106;2022-09-01T05:35:09;99598.63;;;13.48;79.27
73151;BME280;61354;50.758;6.106;2022-09-01T05:37:35;99599.16;;;13.38;79.26
73151;BME280;61354;50.758;6.106;2022-09-01T05:40:05;99607.31;;;13.47;78.69
73151;BME280;61354;50.758;6.106;2022-09-01T05:42:34;99608.88;;;13.44;78.87
73151;BME280;61354;50.758;6.106;2022-09-01T05:45:04;99606.53;;;13.46;79.12
73151;BME280;61354;50.758;6.106;2022-09-01T05:47:31;99608.00;;;13.59;78.61
73151;BME280;61354;50.758;6.106;2022-09-01T05:50:02;99598.31;;;13.53;78.93
73151;BME280;61354;50.758;6.106;2022-09-01T05:52:32;99608.00;;;13.59;78.46
73151;BME280;61354;50.758;6.106;2022-09-01T05:54:58;99605.59;;;13.77;77.99
73151;BME280;61354;50.758;6.106;2022-09-01T05:57:25;99607.13;;;13.75;77.83
73151;BME280;61354;50.758;6.106;2022-09-01T05:59:51;99613.34;;;13.87;77.73
73151;BME280;61354;50.758;6.106;2022-09-01T06:02:22;99611.34;;;14.07;76.84
73151;BME280;61354;50.758;6.106;2022-09-01T06:04:47;99612.31;;;14.15;76.33
73151;BME280;61354;50.758;6.106;2022-09-01T06:07:16;99612.94;;;14.28;76.49
73151;BME280;61354;50.758;6.106;2022-09-01T06:09:44;99622.78;;;14.22;76.58
73151;BME280;61354;50.758;6.106;2022-09-01T06:12:10;99621.34;;;14.08;77.42
73151;BME280;61354;50.758;6.106;2022-09-01T06:14:42;99616.56;;;14.09;77.27
73151;BME280;61354;50.758;6.106;2022-09-01T06:17:09;99630.44;;;14.25;77.14
73151;BME280;61354;50.758;6.106;2022-09-01T06:19:37;99623.81;;;14.13;77.11
73151;BME280;61354;50.758;6.106;2022-09-01T06:22:04;99614.06;;;14.46;75.66
73151;BME280;61354;50.758;6.106;2022-09-01T06:24:30;99633.47;;;14.58;75.86
73151;BME280;61354;50.758;6.106;2022-09-01T06:26:55;99624.88;;;14.71;75.28
73151;BME280;61354;50.758;6.106;2022-09-01T06:29:21;99624.94;;;14.74;75.40
73151;BME280;61354;50.758;6.106;2022-09-01T06:31:46;99622.97;;;14.52;76.62
73151;BME280;61354;50.758;6.106;2022-09-01T06:34:16;99623.41;;;14.77;75.67
73151;BME280;61354;50.758;6.106;2022-09-01T06:36:43;99630.22;;;14.79;75.55
73151;BME280;61354;50.758;6.106;2022-09-01T06:39:10;99630.41;;;14.90;75.78
73151;BME280;61354;50.758;6.106;2022-09-01T06:41:48;99630.28;;;15.09;74.28
73151;BME280;61354;50.758;6.106;2022-09-01T06:44:17;99624.38;;;15.14;75.12
73151;BME280;61354;50.758;6.106;2022-09-01T06:46:51;99624.91;;;15.24;73.57
73151;BME280;61354;50.758;6.106;2022-09-01T06:49:17;99631.16;;;15.40;72.44
73151;BME280;61354;50.758;6.106;2022-09-01T06:51:42;99634.91;;;15.51;72.36
73151;BME280;61354;50.758;6.106;2022-09-01T06:54:08;99619.78;;;15.56;72.48
73151;BME280;61354;50.758;6.106;2022-09-01T06:56:39;99624.63;;;15.62;72.60
73151;BME280;61354;50.758;6.106;2022-09-01T06:59:05;99623.28;;;15.79;70.51
73151;BME280;61354;50.758;6.106;2022-09-01T07:01:32;99633.03;;;15.89;70.90
73151;BME280;61354;50.758;6.106;2022-09-01T07:03:58;99625.50;;;15.97;70.92
73151;BME280;61354;50.758;6.106;2022-09-01T07:06:24;99625.16;;;16.02;70.36
73151;BME280;61354;50.758;6.106;2022-09-01T07:08:57;99624.09;;;16.13;70.04
73151;BME280;61354;50.758;6.106;2022-09-01T07:11:26;99632.56;;;16.21;69.24
73151;BME280;61354;50.758;6.106;2022-09-01T07:13:55;99627.47;;;16.30;68.51
73151;BME280;61354;50.758;6.106;2022-09-01T07:16:23;99627.16;;;16.38;68.32
73151;BME280;61354;50.758;6.106;2022-09-01T07:18:49;99625.22;;;16.46;67.83
73151;BME280;61354;50.758;6.106;2022-09-01T07:21:16;99636.94;;;16.55;67.35
73151;BME280;61354;50.758;6.106;2022-09-01T07:23:42;99632.97;;;16.60;67.33
73151;BME280;61354;50.758;6.106;2022-09-01T07:26:08;99632.66;;;16.69;66.50
73151;BME280;61354;50.758;6.106;2022-09-01T07:28:35;99632.31;;;16.74;67.25
73151;BME280;61354;50.758;6.106;2022-09-01T07:31:00;99637.19;;;16.80;67.27
73151;BME280;61354;50.758;6.106;2022-09-01T07:33:30;99630.09;;;16.94;66.50
73151;BME280;61354;50.758;6.106;2022-09-01T07:35:58;99629.38;;;17.07;65.67
73151;BME280;61354;50.758;6.106;2022-09-01T07:38:24;99627.84;;;17.13;65.39
73151;BME280;61354;50.758;6.106;2022-09-01T07:40:50;99627.84;;;17.17;65.55
73151;BME280;61354;50.758;6.106;2022-09-01T07:43:25;99629.88;;;17.24;65.49
73151;BME280;61354;50.758;6.106;2022-09-01T07:46:08;99632.72;;;17.27;65.52
73151;BME280;61354;50.758;6.106;2022-09-01T07:48:33;99631.97;;;17.37;65.84
73151;BME280;61354;50.758;6.106;2022-09-01T07:50:59;99637.25;;;17.46;65.30
73151;BME280;61354;50.758;6.106;2022-09-01T07:53:27;99628.91;;;17.60;65.03
73151;BME280;61354;50.758;6.106;2022-09-01T07:55:56;99632.94;;;17.63;65.03
73151;BME280;61354;50.758;6.106;2022-09-01T07:58:25;99630.63;;;17.76;64.22
73151;BME280;61354;50.758;6.106;2022-09-01T08:00:52;99632.66;;;17.86;64.01
73151;BME280;61354;50.758;6.106;2022-09-01T08:03:21;99635.91;;;17.88;64.40
73151;BME280;61354;50.758;6.106;2022-09-01T08:05:48;99635.19;;;18.12;62.78
73151;BME280;61354;50.758;6.106;2022-09-01T08:08:18;99626.72;;;18.16;62.15
73151;BME280;61354;50.758;6.106;2022-09-01T08:10:44;99625.91;;;18.12;62.93
73151;BME280;61354;50.758;6.106;2022-09-01T08:13:11;99637.59;;;18.21;63.14
73151;BME280;61354;50.758;6.106;2022-09-01T08:15:40;99627.19;;;18.36;62.54
73151;BME280;61354;50.758;6.106;2022-09-01T08:18:06;99635.63;;;18.36;63.02
73151;BME280;61354;50.758;6.106;2022-09-01T08:20:33;99628.44;;;18.46;62.07
73151;BME280;61354;50.758;6.106;2022-09-01T08:23:02;99636.47;;;18.51;61.93
73151;BME280;61354;50.758;6.106;2022-09-01T08:25:29;99632.44;;;18.55;61.72
73151;BME280;61354;50.758;6.106;2022-09-01T08:27:55;99630.03;;;18.61;62.02
73151;BME280;61354;50.758;6.106;2022-09-01T08:30:21;99630.84;;;18.61;61.42
73151;BME280;61354;50.758;6.106;2022-09-01T08:32:47;99632.88;;;18.68;61.42
73151;BME280;61354;50.758;6.106;2022-09-01T08:35:14;99634.06;;;18.67;61.90
73151;BME280;61354;50.758;6.106;2022-09-01T08:37:41;99632.09;;;18.75;60.93
73151;BME280;61354;50.758;6.106;2022-09-01T08:40:12;99628.47;;;18.78;61.43
73151;BME280;61354;50.758;6.106;2022-09-01T08:43:05;99628.47;;;18.92;60.54
73151;BME280;61354;50.758;6.106;2022-09-01T08:48:22;99638.13;;;18.95;59.64
73151;BME280;61354;50.758;6.106;2022-09-01T08:50:57;99640.13;;;19.01;58.20
73151;BME280;61354;50.758;6.106;2022-09-01T08:53:33;99642.13;;;19.11;59.35
73151;BME280;61354;50.758;6.106;2022-09-01T08:56:01;99636.91;;;19.17;58.87
73151;BME280;61354;50.758;6.106;2022-09-01T08:58:31;99636.50;;;19.22;58.46
73151;BME280;61354;50.758;6.106;2022-09-01T09:01:10;99646.91;;;19.40;58.00
73151;BME280;61354;50.758;6.106;2022-09-01T09:03:50;99639.28;;;19.40;57.47
73151;BME280;61354;50.758;6.106;2022-09-01T09:06:49;99646.13;;;19.46;57.16
73151;BME280;61354;50.758;6.106;2022-09-01T09:09:19;99635.63;;;19.50;56.63
73151;BME280;61354;50.758;6.106;2022-09-01T09:14:39;99638.84;;;19.56;55.79
73151;BME280;61354;50.758;6.106;2022-09-01T09:17:06;99630.00;;;19.54;56.55
73151;BME280;61354;50.758;6.106;2022-09-01T09:19:38;99627.53;;;19.74;56.41
73151;BME280;61354;50.758;6.106;2022-09-01T09:22:13;99631.19;;;19.71;56.02
73151;BME280;61354;50.758;6.106;2022-09-01T09:30:04;99622.69;;;19.78;55.82
73151;BME280;61354;50.758;6.106;2022-09-01T09:32:52;99628.31;;;19.85;56.70
73151;BME280;61354;50.758;6.106;2022-09-01T09:35:27;99618.63;;;19.86;54.89
73151;BME280;61354;50.758;6.106;2022-09-01T09:37:54;99620.63;;;19.89;55.96
73151;BME280;61354;50.758;6.106;2022-09-01T09:40:25;99609.31;;;20.00;54.93
73151;BME280;61354;50.758;6.106;2022-09-01T09:45:44;99598.84;;;20.00;54.17
73151;BME280;61354;50.758;6.106;2022-09-01T09:48:26;99599.63;;;20.04;54.64
73151;BME280;61354;50.758;6.106;2022-09-01T09:50:52;99601.97;;;20.17;52.83
73151;BME280;61354;50.758;6.106;2022-09-01T09:59:26;99600.94;;;20.55;52.64
73151;BME280;61354;50.758;6.106;2022-09-01T10:01:57;99595.34;;;20.48;53.47
73151;BME280;61354;50.758;6.106;2022-09-01T10:04:35;99596.97;;;20.46;51.90
73151;BME280;61354;50.758;6.106;2022-09-01T10:09:53;99599.03;;;20.38;52.54
73151;BME280;61354;50.758;6.106;2022-09-01T10:12:20;99582.88;;;20.42;50.87
73151;BME280;61354;50.758;6.106;2022-09-01T10:14:53;99594.94;;;20.53;51.26
73151;BME280;61354;50.758;6.106;2022-09-01T10:17:26;99598.16;;;20.48;51.16
73151;BME280;61354;50.758;6.106;2022-09-01T10:20:02;99583.97;;;20.63;51.64
73151;BME280;61354;50.758;6.106;2022-09-01T10:22:31;99589.13;;;20.71;50.28
73151;BME280;61354;50.758;6.106;2022-09-01T10:24:58;99579.72;;;20.85;51.66
73151;BME280;61354;50.758;6.106;2022-09-01T10:27:29;99586.22;;;20.82;51.52
73151;BME280;61354;50.758;6.106;2022-09-01T10:30:04;99576.78;;;20.99;51.32
73151;BME280;61354;50.758;6.106;2022-09-01T10:32:34;99571.44;;;21.08;50.32
73151;BME280;61354;50.758;6.106;2022-09-01T10:35:02;99580.97;;;20.84;50.33
73151;BME280;61354;50.758;6.106;2022-09-01T10:37:29;99576.91;;;20.85;50.42
73151;BME280;61354;50.758;6.106;2022-09-01T10:40:18;99581.28;;;20.93;48.93
73151;BME280;61354;50.758;6.106;2022-09-01T10:42:46;99580.03;;;20.94;49.11
73151;BME280;61354;50.758;6.106;2022-09-01T10:45:35;99568.28;;;21.03;49.53
73151;BME280;61354;50.758;6.106;2022-09-01T10:48:23;99571.91;;;21.03;50.15
73151;BME280;61354;50.758;6.106;2022-09-01T10:53:46;99581.78;;;21.22;49.21
73151;BME280;61354;50.758;6.106;2022-09-01T11:15:44;99557.34;;;21.08;47.89
73151;BME280;61354;50.758;6.106;2022-09-01T11:18:15;99559.16;;;21.26;47.47
73151;BME280;61354;50.758;6.106;2022-09-01T11:20:42;99557.34;;;21.46;47.78
73151;BME280;61354;50.758;6.106;2022-09-01T11:30:46;99550.09;;;21.76;44.13
73151;BME280;61354;50.758;6.106;2022-09-01T11:41:52;99541.91;;;22.16;43.68
73151;BME280;61354;50.758;6.106;2022-09-01T11:49:58;99530.06;;;22.24;45.17
73151;BME280;61354;50.758;6.106;2022-09-01T11:52:27;99541.06;;;22.19;43.95
73151;BME280;61354;50.758;6.106;2022-09-01T11:54:54;99534.47;;;21.98;43.89
73151;BME280;61354;50.758;6.106;2022-09-01T11:57:35;99529.03;;;22.11;44.87
73151;BME280;61354;50.758;6.106;2022-09-01T12:00:07;99527.78;;;22.16;43.24
73151;BME280;61354;50.758;6.106;2022-09-01T12:02:35;99530.00;;;22.28;44.57
73151;BME280;61354;50.758;6.106;2022-09-01T12:05:32;99524.34;;;22.28;43.52
73151;BME280;61354;50.758;6.106;2022-09-01T12:08:01;99519.50;;;22.28;45.81
73151;BME280;61354;50.758;6.106;2022-09-01T12:10:32;99520.19;;;22.36;45.27
73151;BME280;61354;50.758;6.106;2022-09-01T12:13:03;99512.69;;;22.49;45.23
73151;BME280;61354;50.758;6.106;2022-09-01T12:15:28;99514.66;;;22.52;45.30
73151;BME280;61354;50.758;6.106;2022-09-01T12:20:35;99510.94;;;22.32;45.17
73151;BME280;61354;50.758;6.106;2022-09-01T12:23:03;99511.81;;;22.29;44.75
73151;BME280;61354;50.758;6.106;2022-09-01T12:25:39;99513.53;;;22.46;45.00
73151;BME280;61354;50.758;6.106;2022-09-01T12:28:05;99512.63;;;22.53;45.11
73151;BME280;61354;50.758;6.106;2022-09-01T12:30:31;99512.50;;;22.60;44.11
73151;BME280;61354;50.758;6.106;2022-09-01T12:33:05;99512.31;;;22.71;44.99
73151;BME280;61354;50.758;6.106;2022-09-01T12:35:32;99507.16;;;22.66;43.63
73151;BME280;61354;50.758;6.106;2022-09-01T12:40:52;99509.88;;;22.73;43.82
73151;BME280;61354;50.758;6.106;2022-09-01T12:45:59;99508.06;;;22.82;44.22
73151;BME280;61354;50.758;6.106;2022-09-01T12:48:37;99498.09;;;22.98;43.85
73151;BME280;61354;50.758;6.106;2022-09-01T12:51:24;99504.84;;;23.04;43.89
73151;BME280;61354;50.758;6.106;2022-09-01T12:53:55;99496.75;;;23.06;43.90
73151;BME280;61354;50.758;6.106;2022-09-01T12:56:30;99487.88;;;23.04;42.99
73151;BME280;61354;50.758;6.106;2022-09-01T12:59:25;99491.44;;;23.28;43.17
73151;BME280;61354;50.758;6.106;2022-09-01T13:01:51;99495.19;;;23.21;43.31
73151;BME280;61354;50.758;6.106;2022-09-01T13:06:47;99486.28;;;23.23;44.90
73151;BME280;61354;50.758;6.106;2022-09-01T13:09:12;99478.34;;;23.34;43.99
73151;BME280;61354;50.758;6.106;2022-09-01T13:11:38;99474.72;;;23.33;42.23
73151;BME280;61354;50.758;6.106;2022-09-01T13:14:04;99479.78;;;23.42;43.09
73151;BME280;61354;50.758;6.106;2022-09-01T13:16:29;99485.31;;;23.49;44.05
73151;BME280;61354;50.758;6.106;2022-09-01T13:18:55;99480.91;;;23.48;43.69
73151;BME280;61354;50.758;6.106;2022-09-01T13:21:20;99482.34;;;23.56;42.32
73151;BME280;61354;50.758;6.106;2022-09-01T13:23:46;99480.56;;;23.63;43.28
73151;BME280;61354;50.758;6.106;2022-09-01T13:26:12;99466.41;;;23.63;42.52
73151;BME280;61354;50.758;6.106;2022-09-01T13:28:38;99463.22;;;23.61;43.70
73151;BME280;61354;50.758;6.106;2022-09-01T13:31:04;99460.22;;;23.68;42.84
73151;BME280;61354;50.758;6.106;2022-09-01T13:33:31;99460.53;;;23.73;43.79
73151;BME280;61354;50.758;6.106;2022-09-01T13:35:57;99464.72;;;23.85;42.95
73151;BME280;61354;50.758;6.106;2022-09-01T13:38:23;99458.28;;;23.45;42.47
73151;BME280;61354;50.758;6.106;2022-09-01T13:40:50;99463.56;;;23.63;42.81
73151;BME280;61354;50.758;6.106;2022-09-01T13:43:21;99458.69;;;23.63;42.11
73151;BME280;61354;50.758;6.106;2022-09-01T13:45:47;99455.66;;;23.54;41.44
73151;BME280;61354;50.758;6.106;2022-09-01T13:48:15;99449.13;;;23.37;42.10
73151;BME280;61354;50.758;6.106;2022-09-01T13:50:49;99448.06;;;23.31;41.61
73151;BME280;61354;50.758;6.106;2022-09-01T13:53:15;99445.59;;;23.33;41.09
73151;BME280;61354;50.758;6.106;2022-09-01T13:55:44;99444.91;;;23.65;40.73
73151;BME280;61354;50.758;6.106;2022-09-01T13:58:09;99440.16;;;23.78;41.87
73151;BME280;61354;50.758;6.106;2022-09-01T14:00:45;99442.56;;;23.96;41.58
73151;BME280;61354;50.758;6.106;2022-09-01T14:06:43;99432.13;;;23.93;39.42
73151;BME280;61354;50.758;6.106;2022-09-01T14:09:43;99430.00;;;24.14;40.82
73151;BME280;61354;50.758;6.106;2022-09-01T14:12:43;99437.59;;;23.84;41.80
73151;BME280;61354;50.758;6.106;2022-09-01T14:15:10;99427.56;;;23.60;41.19
73151;BME280;61354;50.758;6.106;2022-09-01T14:17:47;99434.25;;;23.33;41.21
73151;BME280;61354;50.758;6.106;2022-09-01T14:20:17;99434.31;;;23.29;42.13
73151;BME280;61354;50.758;6.106;2022-09-01T14:22:43;99430.56;;;23.16;42.40
73151;BME280;61354;50.758;6.106;2022-09-01T14:25:10;99431.28;;;23.00;42.87
73151;BME280;61354;50.758;6.106;2022-09-01T14:27:36;99432.06;;;23.21;42.84
73151;BME280;61354;50.758;6.106;2022-09-01T14:30:07;99422.69;;;23.44;42.00
73151;BME280;61354;50.758;6.106;2022-09-01T14:32:34;99417.69;;;23.68;42.20
73151;BME280;61354;50.758;6.106;2022-09-01T14:35:02;99414.09;;;23.84;42.67
73151;BME280;61354;50.758;6.106;2022-09-01T14:37:28;99407.47;;;23.90;40.35
73151;BME280;61354;50.758;6.106;2022-09-01T14:39:56;99414.75;;;24.08;41.36